Britannia — VY5348 — position and weather

sailwx.info

Track history (hours):
 
Tides and Currents Weather Stations Pressure Air Temp Water Temp Dewpoint Dewpoint Depression Visibility Wind Speed Wind Dir Waves Ship Positions

Britannia

Last reported at 2017-Dec-11 13:00 UTC. Time now 2017-Dec-11 13:23 UTC.
Position N 49°18' W 123°08'.

Length 38 m; draft 5.4 m.

Type: Passenger vessel. MMSI: 316021351.

Date/timePositionNaut miles runAvg speedWind from/ knotsBaromVisibWave heightAir tempDewpointWater temp
2017-Dec-11 13:00N 49°18' W 123°08'0 0.0
2017-Dec-11 12:31N 49°18' W 123°08'0 0.0
2017-Dec-11 12:01N 49°18' W 123°08'0 0.0
2017-Dec-11 11:30N 49°18' W 123°08'0 0.0
2017-Dec-11 11:01N 49°18' W 123°08'0 0.0
2017-Dec-11 10:30N 49°18' W 123°08'0 0.0
2017-Dec-11 10:00N 49°18' W 123°08'0 0.0
2017-Dec-11 09:31N 49°18' W 123°08'0 0.0
2017-Dec-11 09:00N 49°18' W 123°08'0 0.0
2017-Dec-11 08:30N 49°18' W 123°08'0 0.0
2017-Dec-11 08:01N 49°18' W 123°08'0 0.0
2017-Dec-11 07:30N 49°18' W 123°08'0 0.0
2017-Dec-11 07:01N 49°18' W 123°08'0 0.0
2017-Dec-11 06:30N 49°18' W 123°08'0 0.0
2017-Dec-11 06:01N 49°18' W 123°08'0 0.0
2017-Dec-11 05:31N 49°18' W 123°08'1 1.8
2017-Dec-11 05:01N 49°17' W 123°07'1 2.7
2017-Dec-11 04:31N 49°17' W 123°05'1 2.6
2017-Dec-11 04:01N 49°18' W 123°03'2 4.8
2017-Dec-11 03:31N 49°18' W 123°06'1 2.2
2017-Dec-11 03:00N 49°18' W 123°08'0 0.0
2017-Dec-11 02:30N 49°18' W 123°08'0 0.0
2017-Dec-11 02:00N 49°18' W 123°08'0 0.0
2017-Dec-11 01:31N 49°18' W 123°08'0 0.0
2017-Dec-11 01:00N 49°18' W 123°08'0 0.0
2017-Dec-11 00:31N 49°18' W 123°08'0 0.0
2017-Dec-11 00:01N 49°18' W 123°08'0 0.0
2017-Dec-10 23:30N 49°18' W 123°08'0 0.0
2017-Dec-10 23:00N 49°18' W 123°08'0 0.0
2017-Dec-10 22:31N 49°18' W 123°08'0 0.0
2017-Dec-10 22:01N 49°18' W 123°08'0 0.0
2017-Dec-10 21:31N 49°18' W 123°08'0 0.0
2017-Dec-10 21:01N 49°18' W 123°08'0 0.0
2017-Dec-10 20:31N 49°18' W 123°08'0 0.0
2017-Dec-10 20:01N 49°18' W 123°08'0 0.0
2017-Dec-10 19:30N 49°18' W 123°08'0 0.0
2017-Dec-10 19:01N 49°18' W 123°08'0 0.0
2017-Dec-10 18:31N 49°18' W 123°08'0 0.0
2017-Dec-10 18:01N 49°18' W 123°08'0 0.0
2017-Dec-10 17:30N 49°18' W 123°08'0 0.0
2017-Dec-10 17:01N 49°18' W 123°08'0 0.0
2017-Dec-10 16:31N 49°18' W 123°08'0 0.0
2017-Dec-10 16:01N 49°18' W 123°08'0 0.0
2017-Dec-10 15:30N 49°18' W 123°08'0 0.0
2017-Dec-10 15:01N 49°18' W 123°08'0 0.0
2017-Dec-10 14:31N 49°18' W 123°08'0 0.0
2017-Dec-10 14:01N 49°18' W 123°08'0 0.0
2017-Dec-10 13:30N 49°18' W 123°08'0 0.0
2017-Dec-10 13:01N 49°18' W 123°08'0 0.0
2017-Dec-10 12:31N 49°18' W 123°08'0 0.0
2017-Dec-10 12:01N 49°18' W 123°08'0 0.0
2017-Dec-10 11:30N 49°18' W 123°08'0 0.0
2017-Dec-10 11:01N 49°18' W 123°08'0 0.0
2017-Dec-10 10:30N 49°18' W 123°08'0 0.0
2017-Dec-10 10:00N 49°18' W 123°08'0 0.0
2017-Dec-10 09:31N 49°18' W 123°08'0 0.0
2017-Dec-10 09:01N 49°18' W 123°08'0 0.0
2017-Dec-10 08:30N 49°18' W 123°08'0 0.0
2017-Dec-10 08:00N 49°18' W 123°08'0 0.0
2017-Dec-10 07:31N 49°18' W 123°08'0 0.0
2017-Dec-10 07:01N 49°18' W 123°08'0 0.0
2017-Dec-10 06:31N 49°18' W 123°08'1 1.8
2017-Dec-10 06:01N 49°18' W 123°07'1 1.8
2017-Dec-10 05:31N 49°18' W 123°07'2 3.6
2017-Dec-10 05:01N 49°18' W 123°04'3 6.1
2017-Dec-10 04:31N 49°18' W 122°59'1 3.0
2017-Dec-10 04:01N 49°18' W 122°57'5 9.5
2017-Dec-10 03:30N 49°18' W 123°04'2 4.9
2017-Dec-10 03:01N 49°18' W 123°08'0 0.0
2017-Dec-10 02:31N 49°18' W 123°08'0 0.0
2017-Dec-10 02:01N 49°18' W 123°08'0 0.0
2017-Dec-10 01:31N 49°18' W 123°08'0 0.0
2017-Dec-10 01:01N 49°18' W 123°08'0 0.0
2017-Dec-10 00:31N 49°18' W 123°08'0 0.0
2017-Dec-10 00:00N 49°18' W 123°08'0 0.0
2017-Dec-09 23:31N 49°18' W 123°08'0 0.0
2017-Dec-09 23:01N 49°18' W 123°08'0 0.0
2017-Dec-09 22:31N 49°18' W 123°08'0 0.0
2017-Dec-09 22:01N 49°18' W 123°08'0 0.0
2017-Dec-09 21:31N 49°18' W 123°08'0 0.0
2017-Dec-09 21:01N 49°18' W 123°08'0 0.0
2017-Dec-09 20:31N 49°18' W 123°08'0 0.0
2017-Dec-09 20:00N 49°18' W 123°08'0 0.0
2017-Dec-09 19:30N 49°18' W 123°08'0 0.0
2017-Dec-09 19:00N 49°18' W 123°08'0 0.0
2017-Dec-09 18:31N 49°18' W 123°08'0 0.0
2017-Dec-09 18:00N 49°18' W 123°08'0 0.0
2017-Dec-09 17:30N 49°18' W 123°08'0 0.0
2017-Dec-09 17:00N 49°18' W 123°08'0 0.0
2017-Dec-09 16:30N 49°18' W 123°08'0 0.0
2017-Dec-09 16:00N 49°18' W 123°08'0 0.0
2017-Dec-09 15:30N 49°18' W 123°08'0 0.0
2017-Dec-09 15:00N 49°18' W 123°08'0 0.0
2017-Dec-09 14:30N 49°18' W 123°08'0 0.0
2017-Dec-09 14:00N 49°18' W 123°08'0 0.0
2017-Dec-09 13:31N 49°18' W 123°08'0 0.0
2017-Dec-09 13:00N 49°18' W 123°08'0 0.0
2017-Dec-09 12:31N 49°18' W 123°08'0 0.0
2017-Dec-09 12:01N 49°18' W 123°08'0 0.0
2017-Dec-09 11:30N 49°18' W 123°08'0 0.0
2017-Dec-09 11:00N 49°18' W 123°08'0 0.0
2017-Dec-09 10:31N 49°18' W 123°08'0 0.0
2017-Dec-09 10:01N 49°18' W 123°08'0 0.0
2017-Dec-09 09:31N 49°18' W 123°08'0 0.0
2017-Dec-09 09:00N 49°18' W 123°08'0 0.0
2017-Dec-09 08:30N 49°18' W 123°08'0 0.0
2017-Dec-09 08:00N 49°18' W 123°08'0 0.0
2017-Dec-09 07:29N 49°18' W 123°08'0 0.0
2017-Dec-09 07:01N 49°18' W 123°08'0 0.0
2017-Dec-09 06:30N 49°18' W 123°08'0 0.0
2017-Dec-09 06:00N 49°18' W 123°08'0 0.0
2017-Dec-09 05:30N 49°18' W 123°08'0 0.0
2017-Dec-09 05:00N 49°18' W 123°08'0 0.0
2017-Dec-09 04:30N 49°18' W 123°08'0 0.0
2017-Dec-09 04:00N 49°18' W 123°08'0 0.0
2017-Dec-09 03:25N 49°18' W 123°08'0 0.0
2017-Dec-09 03:00N 49°18' W 123°08'0 0.0
2017-Dec-09 02:30N 49°18' W 123°08'0 0.0
2017-Dec-09 01:59N 49°18' W 123°08'0 0.0
2017-Dec-09 01:30N 49°18' W 123°08'0 0.0
2017-Dec-09 01:00N 49°18' W 123°08'0 0.0
2017-Dec-09 00:30N 49°18' W 123°08'0 0.0
2017-Dec-09 00:00N 49°18' W 123°08'0 0.0
2017-Dec-08 23:24N 49°18' W 123°08'0 0.0
2017-Dec-08 23:00N 49°18' W 123°08'0 0.0
2017-Dec-08 22:21N 49°18' W 123°08'0 0.0
2017-Dec-08 21:49N 49°18' W 123°08'0 0.0
2017-Dec-08 21:25N 49°18' W 123°08'0 0.0
2017-Dec-08 19:21N 49°18' W 123°08'0 0.0
2017-Dec-08 18:57N 49°18' W 123°08'0 0.0
2017-Dec-08 17:40N 49°18' W 123°08'0 0.0
2017-Dec-08 17:26N 49°18' W 123°08'0 0.0
2017-Dec-08 16:58N 49°18' W 123°08'0 0.0
2017-Dec-08 16:30N 49°18' W 123°08'0 0.0
2017-Dec-08 15:53N 49°18' W 123°08'0 0.0
2017-Dec-08 15:30N 49°18' W 123°08'0 0.0
2017-Dec-08 15:00N 49°18' W 123°08'0 0.0
2017-Dec-08 14:30N 49°18' W 123°08'0 0.0
2017-Dec-08 14:00N 49°18' W 123°08'0 0.0
2017-Dec-08 13:30N 49°18' W 123°08'0 0.0
2017-Dec-08 13:00N 49°18' W 123°08'0 0.0
2017-Dec-08 12:31N 49°18' W 123°08'0 0.0
2017-Dec-08 12:01N 49°18' W 123°08'0 0.0
2017-Dec-08 11:30N 49°18' W 123°08'0 0.0
2017-Dec-08 11:00N 49°18' W 123°08'0 0.0
2017-Dec-08 10:31N 49°18' W 123°08'0 0.0
2017-Dec-08 10:01N 49°18' W 123°08'0 0.0
2017-Dec-08 09:29N 49°18' W 123°08'0 0.0
2017-Dec-08 09:01N 49°18' W 123°08'0 0.0
2017-Dec-08 08:29N 49°18' W 123°08'0 0.0
2017-Dec-08 08:00N 49°18' W 123°08'0 0.0
2017-Dec-08 07:30N 49°18' W 123°08'0 0.0
2017-Dec-08 07:00N 49°18' W 123°08'0 0.0
2017-Dec-08 06:31N 49°18' W 123°08'0 0.0
2017-Dec-08 05:59N 49°18' W 123°08'0 0.0
2017-Dec-08 05:30N 49°18' W 123°08'0 0.0
2017-Dec-08 05:00N 49°18' W 123°08'0 0.0
2017-Dec-08 04:30N 49°18' W 123°08'0 0.0
2017-Dec-08 04:00N 49°18' W 123°08'0 0.0
2017-Dec-08 03:30N 49°18' W 123°08'0 0.0
2017-Dec-08 03:00N 49°18' W 123°08'0 0.0
2017-Dec-08 02:30N 49°18' W 123°08'0 0.0
2017-Dec-08 02:00N 49°18' W 123°08'0 0.0
2017-Dec-08 01:31N 49°18' W 123°08'0 0.0
2017-Dec-08 00:53N 49°18' W 123°08'0 0.0
2017-Dec-07 23:47N 49°18' W 123°08'0 0.0
2017-Dec-07 23:04N 49°18' W 123°08'0 0.0
2017-Dec-07 22:59N 49°18' W 123°08'0 0.0
2017-Dec-07 21:20N 49°18' W 123°08'0 0.0
2017-Dec-07 20:56N 49°18' W 123°08'0 0.0
2017-Dec-07 20:04N 49°18' W 123°08'0 0.0
2017-Dec-07 19:42N 49°18' W 123°08'0 0.0
2017-Dec-07 19:30N 49°18' W 123°08'0 0.0
2017-Dec-07 18:55N 49°18' W 123°08'0 0.0
2017-Dec-07 18:30N 49°18' W 123°08'0 0.0
2017-Dec-07 17:59N 49°18' W 123°08'0 0.0
2017-Dec-07 17:30N 49°18' W 123°08'0 0.0
2017-Dec-07 17:00N 49°18' W 123°08'0 0.0
2017-Dec-07 16:27N 49°18' W 123°08'0 0.0
2017-Dec-07 15:59N 49°18' W 123°08'0 0.0
2017-Dec-07 15:29N 49°18' W 123°08'0 0.0
2017-Dec-07 15:00N 49°18' W 123°08'0 0.0
2017-Dec-07 14:30N 49°18' W 123°08'0 0.0
2017-Dec-07 14:00N 49°18' W 123°08'0 0.0
2017-Dec-07 13:30N 49°18' W 123°08'0 0.0
2017-Dec-07 12:58N 49°18' W 123°08'0 0.0
2017-Dec-07 12:30N 49°18' W 123°08'0 0.0
2017-Dec-07 12:00N 49°18' W 123°08'0 0.0
2017-Dec-07 11:31N 49°18' W 123°08'0 0.0
2017-Dec-07 10:59N 49°18' W 123°08'0 0.0
2017-Dec-07 10:30N 49°18' W 123°08'0 0.0
2017-Dec-07 09:58N 49°18' W 123°08'0 0.0
2017-Dec-07 09:31N 49°18' W 123°08'0 0.0
2017-Dec-07 09:00N 49°18' W 123°08'0 0.0
2017-Dec-07 08:31N 49°18' W 123°08'0 0.0
2017-Dec-07 08:00N 49°18' W 123°08'0 0.0
2017-Dec-07 07:30N 49°18' W 123°08'0 0.0
2017-Dec-07 07:01N 49°18' W 123°08'0 0.0
2017-Dec-07 06:30N 49°18' W 123°08'0 0.0
2017-Dec-07 05:58N 49°18' W 123°08'0 0.0
2017-Dec-07 05:30N 49°18' W 123°08'0 0.0
2017-Dec-07 04:11N 49°18' W 123°08'0 0.0
2017-Dec-07 04:00N 49°18' W 123°08'0 0.0
2017-Dec-07 03:30N 49°18' W 123°08'0 0.0
2017-Dec-07 02:57N 49°18' W 123°08'0 0.0
2017-Dec-07 02:23N 49°18' W 123°08'0 0.0
2017-Dec-07 01:52N 49°18' W 123°08'0 0.0
2017-Dec-07 00:06N 49°18' W 123°08'0 0.0
2017-Dec-06 23:54N 49°18' W 123°08'  
2017-Dec-04 10:18N 49°18' W 123°08'0 0.0
2017-Dec-04 09:57N 49°18' W 123°08'0 0.0
2017-Dec-04 09:27N 49°18' W 123°08'0 0.0
2017-Dec-04 09:00N 49°18' W 123°08'0 0.0
2017-Dec-04 08:24N 49°18' W 123°08'0 0.0
2017-Dec-04 07:52N 49°18' W 123°08'0 0.0
2017-Dec-04 07:28N 49°18' W 123°08'0 0.0
2017-Dec-04 06:37N 49°18' W 123°08'0 0.0
2017-Dec-04 06:29N 49°18' W 123°08'0 0.0
2017-Dec-04 06:01N 49°18' W 123°08'0 0.0
2017-Dec-04 05:27N 49°18' W 123°08'0 0.0
2017-Dec-04 05:00N 49°18' W 123°08'0 0.0
2017-Dec-04 04:30N 49°18' W 123°08'0 0.0
2017-Dec-04 04:00N 49°18' W 123°08'0 0.0
2017-Dec-03 21:05N 49°18' W 123°08'0 0.0
2017-Dec-03 20:52N 49°18' W 123°08'0 0.0
2017-Dec-03 20:29N 49°18' W 123°08'0 0.0
2017-Dec-03 20:00N 49°18' W 123°08'0 0.0
2017-Dec-03 19:29N 49°18' W 123°08'0 0.0
2017-Dec-03 19:00N 49°18' W 123°08'0 0.0
2017-Dec-03 18:30N 49°18' W 123°08'0 0.0
2017-Dec-03 18:01N 49°18' W 123°08'0 0.0
2017-Dec-03 17:30N 49°18' W 123°08'0 0.0
2017-Dec-03 16:59N 49°18' W 123°08'0 0.0
2017-Dec-03 16:31N 49°18' W 123°08'0 0.0
2017-Dec-03 16:00N 49°18' W 123°08'0 0.0
2017-Dec-03 15:30N 49°18' W 123°08'0 0.0
2017-Dec-03 15:00N 49°18' W 123°08'0 0.0
2017-Dec-03 14:30N 49°18' W 123°08'0 0.0
2017-Dec-03 14:00N 49°18' W 123°08'0 0.0
2017-Dec-03 13:30N 49°18' W 123°08'0 0.0
2017-Dec-03 13:01N 49°18' W 123°08'0 0.0
2017-Dec-03 12:30N 49°18' W 123°08'0 0.0
2017-Dec-03 12:01N 49°18' W 123°08'0 0.0
2017-Dec-03 11:30N 49°18' W 123°08'0 0.0
2017-Dec-03 11:00N 49°18' W 123°08'0 0.0
2017-Dec-03 10:30N 49°18' W 123°08'0 0.0
2017-Dec-03 10:00N 49°18' W 123°08'0 0.0
2017-Dec-03 09:30N 49°18' W 123°08'0 0.0
2017-Dec-03 09:00N 49°18' W 123°08'0 0.0
2017-Dec-03 08:30N 49°18' W 123°08'0 0.0
2017-Dec-03 08:00N 49°18' W 123°08'0 0.0
2017-Dec-03 07:30N 49°18' W 123°08'0 0.0
2017-Dec-03 07:01N 49°18' W 123°08'0 0.0
2017-Dec-03 06:30N 49°18' W 123°08'0 0.0
2017-Dec-03 06:00N 49°18' W 123°08'0 0.0
2017-Dec-03 05:30N 49°18' W 123°08'0 0.0
2017-Dec-03 05:00N 49°18' W 123°08'0 0.0
2017-Dec-02 22:36N 49°18' W 123°08'0 0.0
2017-Dec-02 22:30N 49°18' W 123°08'0 0.0
2017-Dec-02 22:00N 49°18' W 123°08'0 0.0
2017-Dec-02 21:29N 49°18' W 123°08'0 0.0
2017-Dec-02 21:01N 49°18' W 123°08'0 0.0
2017-Dec-02 20:29N 49°18' W 123°08'0 0.0
2017-Dec-02 20:00N 49°18' W 123°08'0 0.0
2017-Dec-02 19:30N 49°18' W 123°08'0 0.0
2017-Dec-02 19:01N 49°18' W 123°08'0 0.0
2017-Dec-02 18:31N 49°18' W 123°08'0 0.0
2017-Dec-02 18:00N 49°18' W 123°08'0 0.0
2017-Dec-02 17:31N 49°18' W 123°08'0 0.0
2017-Dec-02 17:01N 49°18' W 123°08'0 0.0
2017-Dec-02 16:31N 49°18' W 123°08'0 0.0
2017-Dec-02 16:00N 49°18' W 123°08'0 0.0
2017-Dec-02 15:30N 49°18' W 123°08'0 0.0
2017-Dec-02 15:00N 49°18' W 123°08'0 0.0
2017-Dec-02 14:30N 49°18' W 123°08'0 0.0
2017-Dec-02 14:01N 49°18' W 123°08'0 0.0
2017-Dec-02 13:28N 49°18' W 123°08'0 0.0
2017-Dec-02 13:00N 49°18' W 123°08'0 0.0
2017-Dec-02 12:30N 49°18' W 123°08'0 0.0
2017-Dec-02 11:59N 49°18' W 123°08'0 0.0
2017-Dec-02 11:30N 49°18' W 123°08'0 0.0
2017-Dec-02 10:59N 49°18' W 123°08'0 0.0
2017-Dec-02 10:30N 49°18' W 123°08'0 0.0
2017-Dec-02 10:00N 49°18' W 123°08'0 0.0
2017-Dec-02 09:31N 49°18' W 123°08'0 0.0
2017-Dec-02 09:00N 49°18' W 123°08'0 0.0
2017-Dec-02 08:30N 49°18' W 123°08'0 0.0
2017-Dec-02 08:00N 49°18' W 123°08'0 0.0
2017-Dec-02 07:30N 49°18' W 123°08'0 0.0
2017-Dec-02 07:00N 49°18' W 123°08'0 0.0
2017-Dec-02 06:30N 49°18' W 123°08'0 0.0
2017-Dec-02 06:00N 49°18' W 123°08'0 0.0
2017-Dec-02 05:30N 49°18' W 123°08'0 0.0
2017-Dec-02 05:00N 49°18' W 123°08'0 0.0
2017-Dec-02 04:31N 49°18' W 123°08'0 0.0
2017-Dec-02 04:00N 49°18' W 123°08'0 0.0
2017-Dec-02 03:31N 49°18' W 123°08'0 0.0
2017-Dec-02 03:01N 49°18' W 123°08'0 0.0
2017-Dec-02 02:30N 49°18' W 123°08'0 0.0
2017-Dec-02 02:00N 49°18' W 123°08'0 0.0
2017-Dec-02 01:30N 49°18' W 123°08'0 0.0
2017-Dec-02 01:00N 49°18' W 123°08'0 0.0
2017-Dec-02 00:31N 49°18' W 123°08'0 0.0
2017-Dec-02 00:01N 49°18' W 123°08'0 0.0
2017-Dec-01 23:31N 49°18' W 123°08'0 0.0
2017-Dec-01 23:00N 49°18' W 123°08'0 0.0
2017-Dec-01 22:30N 49°18' W 123°08'0 0.0
2017-Dec-01 22:00N 49°18' W 123°08'0 0.0
2017-Dec-01 21:30N 49°18' W 123°08'0 0.0
2017-Dec-01 21:00N 49°18' W 123°08'0 0.0
2017-Dec-01 20:30N 49°18' W 123°08'0 0.0
2017-Dec-01 20:01N 49°18' W 123°08'0 0.0
2017-Dec-01 19:30N 49°18' W 123°08'0 0.0
2017-Dec-01 19:00N 49°18' W 123°08'0 0.0
2017-Dec-01 18:30N 49°18' W 123°08'0 0.0
2017-Dec-01 18:00N 49°18' W 123°08'0 0.0
2017-Dec-01 17:30N 49°18' W 123°08'0 0.0
2017-Dec-01 16:59N 49°18' W 123°08'0 0.0
2017-Dec-01 16:29N 49°18' W 123°08'0 0.0
2017-Dec-01 16:01N 49°18' W 123°08'0 0.0
2017-Dec-01 15:30N 49°18' W 123°08'0 0.0
2017-Dec-01 15:00N 49°18' W 123°08'0 0.0
2017-Dec-01 14:30N 49°18' W 123°08'0 0.0
2017-Dec-01 14:00N 49°18' W 123°08'0 0.0
2017-Dec-01 13:30N 49°18' W 123°08'0 0.0
2017-Dec-01 13:00N 49°18' W 123°08'  
Track history (hours):
 
Tides and Currents Weather Stations Pressure Air Temp Water Temp Dewpoint Dewpoint Depression Visibility Wind Speed Wind Dir Waves Ship Positions

Britannia

Last reported at 2017-Dec-11 13:00 UTC. Time now 2017-Dec-11 13:23 UTC.
Position N 49°18' W 123°08'.

Length 38 m; draft 5.4 m.

Type: Passenger vessel. MMSI: 316021351.

Date/timePositionNaut miles runAvg speedWind from/ knotsBaromVisibWave heightAir tempDewpointWater temp
2017-Dec-11 13:00N 49°18' W 123°08'0 0.0
2017-Dec-11 12:31N 49°18' W 123°08'0 0.0
2017-Dec-11 12:01N 49°18' W 123°08'0 0.0
2017-Dec-11 11:30N 49°18' W 123°08'0 0.0
2017-Dec-11 11:01N 49°18' W 123°08'0 0.0
2017-Dec-11 10:30N 49°18' W 123°08'0 0.0
2017-Dec-11 10:00N 49°18' W 123°08'0 0.0
2017-Dec-11 09:31N 49°18' W 123°08'0 0.0
2017-Dec-11 09:00N 49°18' W 123°08'0 0.0
2017-Dec-11 08:30N 49°18' W 123°08'0 0.0
2017-Dec-11 08:01N 49°18' W 123°08'0 0.0
2017-Dec-11 07:30N 49°18' W 123°08'0 0.0
2017-Dec-11 07:01N 49°18' W 123°08'0 0.0
2017-Dec-11 06:30N 49°18' W 123°08'0 0.0
2017-Dec-11 06:01N 49°18' W 123°08'0 0.0
2017-Dec-11 05:31N 49°18' W 123°08'1 1.8
2017-Dec-11 05:01N 49°17' W 123°07'1 2.7
2017-Dec-11 04:31N 49°17' W 123°05'1 2.6
2017-Dec-11 04:01N 49°18' W 123°03'2 4.8
2017-Dec-11 03:31N 49°18' W 123°06'1 2.2
2017-Dec-11 03:00N 49°18' W 123°08'0 0.0
2017-Dec-11 02:30N 49°18' W 123°08'0 0.0
2017-Dec-11 02:00N 49°18' W 123°08'0 0.0
2017-Dec-11 01:31N 49°18' W 123°08'0 0.0
2017-Dec-11 01:00N 49°18' W 123°08'0 0.0
2017-Dec-11 00:31N 49°18' W 123°08'0 0.0
2017-Dec-11 00:01N 49°18' W 123°08'0 0.0
2017-Dec-10 23:30N 49°18' W 123°08'0 0.0
2017-Dec-10 23:00N 49°18' W 123°08'0 0.0
2017-Dec-10 22:31N 49°18' W 123°08'0 0.0
2017-Dec-10 22:01N 49°18' W 123°08'0 0.0
2017-Dec-10 21:31N 49°18' W 123°08'0 0.0
2017-Dec-10 21:01N 49°18' W 123°08'0 0.0
2017-Dec-10 20:31N 49°18' W 123°08'0 0.0
2017-Dec-10 20:01N 49°18' W 123°08'0 0.0
2017-Dec-10 19:30N 49°18' W 123°08'0 0.0
2017-Dec-10 19:01N 49°18' W 123°08'0 0.0
2017-Dec-10 18:31N 49°18' W 123°08'0 0.0
2017-Dec-10 18:01N 49°18' W 123°08'0 0.0
2017-Dec-10 17:30N 49°18' W 123°08'0 0.0
2017-Dec-10 17:01N 49°18' W 123°08'0 0.0
2017-Dec-10 16:31N 49°18' W 123°08'0 0.0
2017-Dec-10 16:01N 49°18' W 123°08'0 0.0
2017-Dec-10 15:30N 49°18' W 123°08'0 0.0
2017-Dec-10 15:01N 49°18' W 123°08'0 0.0
2017-Dec-10 14:31N 49°18' W 123°08'0 0.0
2017-Dec-10 14:01N 49°18' W 123°08'0 0.0
2017-Dec-10 13:30N 49°18' W 123°08'0 0.0
2017-Dec-10 13:01N 49°18' W 123°08'0 0.0
2017-Dec-10 12:31N 49°18' W 123°08'0 0.0
2017-Dec-10 12:01N 49°18' W 123°08'0 0.0
2017-Dec-10 11:30N 49°18' W 123°08'0 0.0
2017-Dec-10 11:01N 49°18' W 123°08'0 0.0
2017-Dec-10 10:30N 49°18' W 123°08'0 0.0
2017-Dec-10 10:00N 49°18' W 123°08'0 0.0
2017-Dec-10 09:31N 49°18' W 123°08'0 0.0
2017-Dec-10 09:01N 49°18' W 123°08'0 0.0
2017-Dec-10 08:30N 49°18' W 123°08'0 0.0
2017-Dec-10 08:00N 49°18' W 123°08'0 0.0
2017-Dec-10 07:31N 49°18' W 123°08'0 0.0
2017-Dec-10 07:01N 49°18' W 123°08'0 0.0
2017-Dec-10 06:31N 49°18' W 123°08'1 1.8
2017-Dec-10 06:01N 49°18' W 123°07'1 1.8
2017-Dec-10 05:31N 49°18' W 123°07'2 3.6
2017-Dec-10 05:01N 49°18' W 123°04'3 6.1
2017-Dec-10 04:31N 49°18' W 122°59'1 3.0
2017-Dec-10 04:01N 49°18' W 122°57'5 9.5
2017-Dec-10 03:30N 49°18' W 123°04'2 4.9
2017-Dec-10 03:01N 49°18' W 123°08'0 0.0
2017-Dec-10 02:31N 49°18' W 123°08'0 0.0
2017-Dec-10 02:01N 49°18' W 123°08'0 0.0
2017-Dec-10 01:31N 49°18' W 123°08'0 0.0
2017-Dec-10 01:01N 49°18' W 123°08'0 0.0
2017-Dec-10 00:31N 49°18' W 123°08'0 0.0
2017-Dec-10 00:00N 49°18' W 123°08'0 0.0
2017-Dec-09 23:31N 49°18' W 123°08'0 0.0
2017-Dec-09 23:01N 49°18' W 123°08'0 0.0
2017-Dec-09 22:31N 49°18' W 123°08'0 0.0
2017-Dec-09 22:01N 49°18' W 123°08'0 0.0
2017-Dec-09 21:31N 49°18' W 123°08'0 0.0
2017-Dec-09 21:01N 49°18' W 123°08'0 0.0
2017-Dec-09 20:31N 49°18' W 123°08'0 0.0
2017-Dec-09 20:00N 49°18' W 123°08'0 0.0
2017-Dec-09 19:30N 49°18' W 123°08'0 0.0
2017-Dec-09 19:00N 49°18' W 123°08'0 0.0
2017-Dec-09 18:31N 49°18' W 123°08'0 0.0
2017-Dec-09 18:00N 49°18' W 123°08'0 0.0
2017-Dec-09 17:30N 49°18' W 123°08'0 0.0
2017-Dec-09 17:00N 49°18' W 123°08'0 0.0
2017-Dec-09 16:30N 49°18' W 123°08'0 0.0
2017-Dec-09 16:00N 49°18' W 123°08'0 0.0
2017-Dec-09 15:30N 49°18' W 123°08'0 0.0
2017-Dec-09 15:00N 49°18' W 123°08'0 0.0
2017-Dec-09 14:30N 49°18' W 123°08'0 0.0
2017-Dec-09 14:00N 49°18' W 123°08'0 0.0
2017-Dec-09 13:31N 49°18' W 123°08'0 0.0
2017-Dec-09 13:00N 49°18' W 123°08'0 0.0
2017-Dec-09 12:31N 49°18' W 123°08'0 0.0
2017-Dec-09 12:01N 49°18' W 123°08'0 0.0
2017-Dec-09 11:30N 49°18' W 123°08'0 0.0
2017-Dec-09 11:00N 49°18' W 123°08'0 0.0
2017-Dec-09 10:31N 49°18' W 123°08'0 0.0
2017-Dec-09 10:01N 49°18' W 123°08'0 0.0
2017-Dec-09 09:31N 49°18' W 123°08'0 0.0
2017-Dec-09 09:00N 49°18' W 123°08'0 0.0
2017-Dec-09 08:30N 49°18' W 123°08'0 0.0
2017-Dec-09 08:00N 49°18' W 123°08'0 0.0
2017-Dec-09 07:29N 49°18' W 123°08'0 0.0
2017-Dec-09 07:01N 49°18' W 123°08'0 0.0
2017-Dec-09 06:30N 49°18' W 123°08'0 0.0
2017-Dec-09 06:00N 49°18' W 123°08'0 0.0
2017-Dec-09 05:30N 49°18' W 123°08'0 0.0
2017-Dec-09 05:00N 49°18' W 123°08'0 0.0
2017-Dec-09 04:30N 49°18' W 123°08'0 0.0
2017-Dec-09 04:00N 49°18' W 123°08'0 0.0
2017-Dec-09 03:25N 49°18' W 123°08'0 0.0
2017-Dec-09 03:00N 49°18' W 123°08'0 0.0
2017-Dec-09 02:30N 49°18' W 123°08'0 0.0
2017-Dec-09 01:59N 49°18' W 123°08'0 0.0
2017-Dec-09 01:30N 49°18' W 123°08'0 0.0
2017-Dec-09 01:00N 49°18' W 123°08'0 0.0
2017-Dec-09 00:30N 49°18' W 123°08'0 0.0
2017-Dec-09 00:00N 49°18' W 123°08'0 0.0
2017-Dec-08 23:24N 49°18' W 123°08'0 0.0
2017-Dec-08 23:00N 49°18' W 123°08'0 0.0
2017-Dec-08 22:21N 49°18' W 123°08'0 0.0
2017-Dec-08 21:49N 49°18' W 123°08'0 0.0
2017-Dec-08 21:25N 49°18' W 123°08'0 0.0
2017-Dec-08 19:21N 49°18' W 123°08'0 0.0
2017-Dec-08 18:57N 49°18' W 123°08'0 0.0
2017-Dec-08 17:40N 49°18' W 123°08'0 0.0
2017-Dec-08 17:26N 49°18' W 123°08'0 0.0
2017-Dec-08 16:58N 49°18' W 123°08'0 0.0
2017-Dec-08 16:30N 49°18' W 123°08'0 0.0
2017-Dec-08 15:53N 49°18' W 123°08'0 0.0
2017-Dec-08 15:30N 49°18' W 123°08'0 0.0
2017-Dec-08 15:00N 49°18' W 123°08'0 0.0
2017-Dec-08 14:30N 49°18' W 123°08'0 0.0
2017-Dec-08 14:00N 49°18' W 123°08'0 0.0
2017-Dec-08 13:30N 49°18' W 123°08'0 0.0
2017-Dec-08 13:00N 49°18' W 123°08'0 0.0
2017-Dec-08 12:31N 49°18' W 123°08'0 0.0
2017-Dec-08 12:01N 49°18' W 123°08'0 0.0
2017-Dec-08 11:30N 49°18' W 123°08'0 0.0
2017-Dec-08 11:00N 49°18' W 123°08'0 0.0
2017-Dec-08 10:31N 49°18' W 123°08'0 0.0
2017-Dec-08 10:01N 49°18' W 123°08'0 0.0
2017-Dec-08 09:29N 49°18' W 123°08'0 0.0
2017-Dec-08 09:01N 49°18' W 123°08'0 0.0
2017-Dec-08 08:29N 49°18' W 123°08'0 0.0
2017-Dec-08 08:00N 49°18' W 123°08'0 0.0
2017-Dec-08 07:30N 49°18' W 123°08'0 0.0
2017-Dec-08 07:00N 49°18' W 123°08'0 0.0
2017-Dec-08 06:31N 49°18' W 123°08'0 0.0
2017-Dec-08 05:59N 49°18' W 123°08'0 0.0
2017-Dec-08 05:30N 49°18' W 123°08'0 0.0
2017-Dec-08 05:00N 49°18' W 123°08'0 0.0
2017-Dec-08 04:30N 49°18' W 123°08'0 0.0
2017-Dec-08 04:00N 49°18' W 123°08'0 0.0
2017-Dec-08 03:30N 49°18' W 123°08'0 0.0
2017-Dec-08 03:00N 49°18' W 123°08'0 0.0
2017-Dec-08 02:30N 49°18' W 123°08'0 0.0
2017-Dec-08 02:00N 49°18' W 123°08'0 0.0
2017-Dec-08 01:31N 49°18' W 123°08'0 0.0
2017-Dec-08 00:53N 49°18' W 123°08'0 0.0
2017-Dec-07 23:47N 49°18' W 123°08'0 0.0
2017-Dec-07 23:04N 49°18' W 123°08'0 0.0
2017-Dec-07 22:59N 49°18' W 123°08'0 0.0
2017-Dec-07 21:20N 49°18' W 123°08'0 0.0
2017-Dec-07 20:56N 49°18' W 123°08'0 0.0
2017-Dec-07 20:04N 49°18' W 123°08'0 0.0
2017-Dec-07 19:42N 49°18' W 123°08'0 0.0
2017-Dec-07 19:30N 49°18' W 123°08'0 0.0
2017-Dec-07 18:55N 49°18' W 123°08'0 0.0
2017-Dec-07 18:30N 49°18' W 123°08'0 0.0
2017-Dec-07 17:59N 49°18' W 123°08'0 0.0
2017-Dec-07 17:30N 49°18' W 123°08'0 0.0
2017-Dec-07 17:00N 49°18' W 123°08'0 0.0
2017-Dec-07 16:27N 49°18' W 123°08'0 0.0
2017-Dec-07 15:59N 49°18' W 123°08'0 0.0
2017-Dec-07 15:29N 49°18' W 123°08'0 0.0
2017-Dec-07 15:00N 49°18' W 123°08'0 0.0
2017-Dec-07 14:30N 49°18' W 123°08'0 0.0
2017-Dec-07 14:00N 49°18' W 123°08'0 0.0
2017-Dec-07 13:30N 49°18' W 123°08'0 0.0
2017-Dec-07 12:58N 49°18' W 123°08'0 0.0
2017-Dec-07 12:30N 49°18' W 123°08'0 0.0
2017-Dec-07 12:00N 49°18' W 123°08'0 0.0
2017-Dec-07 11:31N 49°18' W 123°08'0 0.0
2017-Dec-07 10:59N 49°18' W 123°08'0 0.0
2017-Dec-07 10:30N 49°18' W 123°08'0 0.0
2017-Dec-07 09:58N 49°18' W 123°08'0 0.0
2017-Dec-07 09:31N 49°18' W 123°08'0 0.0
2017-Dec-07 09:00N 49°18' W 123°08'0 0.0
2017-Dec-07 08:31N 49°18' W 123°08'0 0.0
2017-Dec-07 08:00N 49°18' W 123°08'0 0.0
2017-Dec-07 07:30N 49°18' W 123°08'0 0.0
2017-Dec-07 07:01N 49°18' W 123°08'0 0.0
2017-Dec-07 06:30N 49°18' W 123°08'0 0.0
2017-Dec-07 05:58N 49°18' W 123°08'0 0.0
2017-Dec-07 05:30N 49°18' W 123°08'0 0.0
2017-Dec-07 04:11N 49°18' W 123°08'0 0.0
2017-Dec-07 04:00N 49°18' W 123°08'0 0.0
2017-Dec-07 03:30N 49°18' W 123°08'0 0.0
2017-Dec-07 02:57N 49°18' W 123°08'0 0.0
2017-Dec-07 02:23N 49°18' W 123°08'0 0.0
2017-Dec-07 01:52N 49°18' W 123°08'0 0.0
2017-Dec-07 00:06N 49°18' W 123°08'0 0.0
2017-Dec-06 23:54N 49°18' W 123°08'  
2017-Dec-04 10:18N 49°18' W 123°08'0 0.0
2017-Dec-04 09:57N 49°18' W 123°08'0 0.0
2017-Dec-04 09:27N 49°18' W 123°08'0 0.0
2017-Dec-04 09:00N 49°18' W 123°08'0 0.0
2017-Dec-04 08:24N 49°18' W 123°08'0 0.0
2017-Dec-04 07:52N 49°18' W 123°08'0 0.0
2017-Dec-04 07:28N 49°18' W 123°08'0 0.0
2017-Dec-04 06:37N 49°18' W 123°08'0 0.0
2017-Dec-04 06:29N 49°18' W 123°08'0 0.0
2017-Dec-04 06:01N 49°18' W 123°08'0 0.0
2017-Dec-04 05:27N 49°18' W 123°08'0 0.0
2017-Dec-04 05:00N 49°18' W 123°08'0 0.0
2017-Dec-04 04:30N 49°18' W 123°08'0 0.0
2017-Dec-04 04:00N 49°18' W 123°08'0 0.0
2017-Dec-03 21:05N 49°18' W 123°08'0 0.0
2017-Dec-03 20:52N 49°18' W 123°08'0 0.0
2017-Dec-03 20:29N 49°18' W 123°08'0 0.0
2017-Dec-03 20:00N 49°18' W 123°08'0 0.0
2017-Dec-03 19:29N 49°18' W 123°08'0 0.0
2017-Dec-03 19:00N 49°18' W 123°08'0 0.0
2017-Dec-03 18:30N 49°18' W 123°08'0 0.0
2017-Dec-03 18:01N 49°18' W 123°08'0 0.0
2017-Dec-03 17:30N 49°18' W 123°08'0 0.0
2017-Dec-03 16:59N 49°18' W 123°08'0 0.0
2017-Dec-03 16:31N 49°18' W 123°08'0 0.0
2017-Dec-03 16:00N 49°18' W 123°08'0 0.0
2017-Dec-03 15:30N 49°18' W 123°08'0 0.0
2017-Dec-03 15:00N 49°18' W 123°08'0 0.0
2017-Dec-03 14:30N 49°18' W 123°08'0 0.0
2017-Dec-03 14:00N 49°18' W 123°08'0 0.0
2017-Dec-03 13:30N 49°18' W 123°08'0 0.0
2017-Dec-03 13:01N 49°18' W 123°08'0 0.0
2017-Dec-03 12:30N 49°18' W 123°08'0 0.0
2017-Dec-03 12:01N 49°18' W 123°08'0 0.0
2017-Dec-03 11:30N 49°18' W 123°08'0 0.0
2017-Dec-03 11:00N 49°18' W 123°08'0 0.0
2017-Dec-03 10:30N 49°18' W 123°08'0 0.0
2017-Dec-03 10:00N 49°18' W 123°08'0 0.0
2017-Dec-03 09:30N 49°18' W 123°08'0 0.0
2017-Dec-03 09:00N 49°18' W 123°08'0 0.0
2017-Dec-03 08:30N 49°18' W 123°08'0 0.0
2017-Dec-03 08:00N 49°18' W 123°08'0 0.0
2017-Dec-03 07:30N 49°18' W 123°08'0 0.0
2017-Dec-03 07:01N 49°18' W 123°08'0 0.0
2017-Dec-03 06:30N 49°18' W 123°08'0 0.0
2017-Dec-03 06:00N 49°18' W 123°08'0 0.0
2017-Dec-03 05:30N 49°18' W 123°08'0 0.0
2017-Dec-03 05:00N 49°18' W 123°08'0 0.0
2017-Dec-02 22:36N 49°18' W 123°08'0 0.0
2017-Dec-02 22:30N 49°18' W 123°08'0 0.0
2017-Dec-02 22:00N 49°18' W 123°08'0 0.0
2017-Dec-02 21:29N 49°18' W 123°08'0 0.0
2017-Dec-02 21:01N 49°18' W 123°08'0 0.0
2017-Dec-02 20:29N 49°18' W 123°08'0 0.0
2017-Dec-02 20:00N 49°18' W 123°08'0 0.0
2017-Dec-02 19:30N 49°18' W 123°08'0 0.0
2017-Dec-02 19:01N 49°18' W 123°08'0 0.0
2017-Dec-02 18:31N 49°18' W 123°08'0 0.0
2017-Dec-02 18:00N 49°18' W 123°08'0 0.0
2017-Dec-02 17:31N 49°18' W 123°08'0 0.0
2017-Dec-02 17:01N 49°18' W 123°08'0 0.0
2017-Dec-02 16:31N 49°18' W 123°08'0 0.0
2017-Dec-02 16:00N 49°18' W 123°08'0 0.0
2017-Dec-02 15:30N 49°18' W 123°08'0 0.0
2017-Dec-02 15:00N 49°18' W 123°08'0 0.0
2017-Dec-02 14:30N 49°18' W 123°08'0 0.0
2017-Dec-02 14:01N 49°18' W 123°08'0 0.0
2017-Dec-02 13:28N 49°18' W 123°08'0 0.0
2017-Dec-02 13:00N 49°18' W 123°08'0 0.0
2017-Dec-02 12:30N 49°18' W 123°08'0 0.0
2017-Dec-02 11:59N 49°18' W 123°08'0 0.0
2017-Dec-02 11:30N 49°18' W 123°08'0 0.0
2017-Dec-02 10:59N 49°18' W 123°08'0 0.0
2017-Dec-02 10:30N 49°18' W 123°08'0 0.0
2017-Dec-02 10:00N 49°18' W 123°08'0 0.0
2017-Dec-02 09:31N 49°18' W 123°08'0 0.0
2017-Dec-02 09:00N 49°18' W 123°08'0 0.0
2017-Dec-02 08:30N 49°18' W 123°08'0 0.0
2017-Dec-02 08:00N 49°18' W 123°08'0 0.0
2017-Dec-02 07:30N 49°18' W 123°08'0 0.0
2017-Dec-02 07:00N 49°18' W 123°08'0 0.0
2017-Dec-02 06:30N 49°18' W 123°08'0 0.0
2017-Dec-02 06:00N 49°18' W 123°08'0 0.0
2017-Dec-02 05:30N 49°18' W 123°08'0 0.0
2017-Dec-02 05:00N 49°18' W 123°08'0 0.0
2017-Dec-02 04:31N 49°18' W 123°08'0 0.0
2017-Dec-02 04:00N 49°18' W 123°08'0 0.0
2017-Dec-02 03:31N 49°18' W 123°08'0 0.0
2017-Dec-02 03:01N 49°18' W 123°08'0 0.0
2017-Dec-02 02:30N 49°18' W 123°08'0 0.0
2017-Dec-02 02:00N 49°18' W 123°08'0 0.0
2017-Dec-02 01:30N 49°18' W 123°08'0 0.0
2017-Dec-02 01:00N 49°18' W 123°08'0 0.0
2017-Dec-02 00:31N 49°18' W 123°08'0 0.0
2017-Dec-02 00:01N 49°18' W 123°08'0 0.0
2017-Dec-01 23:31N 49°18' W 123°08'0 0.0
2017-Dec-01 23:00N 49°18' W 123°08'0 0.0
2017-Dec-01 22:30N 49°18' W 123°08'0 0.0
2017-Dec-01 22:00N 49°18' W 123°08'0 0.0
2017-Dec-01 21:30N 49°18' W 123°08'0 0.0
2017-Dec-01 21:00N 49°18' W 123°08'0 0.0
2017-Dec-01 20:30N 49°18' W 123°08'0 0.0
2017-Dec-01 20:01N 49°18' W 123°08'0 0.0
2017-Dec-01 19:30N 49°18' W 123°08'0 0.0
2017-Dec-01 19:00N 49°18' W 123°08'0 0.0
2017-Dec-01 18:30N 49°18' W 123°08'0 0.0
2017-Dec-01 18:00N 49°18' W 123°08'0 0.0
2017-Dec-01 17:30N 49°18' W 123°08'0 0.0
2017-Dec-01 16:59N 49°18' W 123°08'0 0.0
2017-Dec-01 16:29N 49°18' W 123°08'0 0.0
2017-Dec-01 16:01N 49°18' W 123°08'0 0.0
2017-Dec-01 15:30N 49°18' W 123°08'0 0.0
2017-Dec-01 15:00N 49°18' W 123°08'0 0.0
2017-Dec-01 14:30N 49°18' W 123°08'0 0.0
2017-Dec-01 14:00N 49°18' W 123°08'0 0.0
2017-Dec-01 13:30N 49°18' W 123°08'0 0.0
2017-Dec-01 13:00N 49°18' W 123°08'  

Dump ship's entire track history